This is the latest recevied weather packets stored in our database for station/object SQ5SUI-3. If no packets are shown the sender has not sent any weather packets the latest 10 day(s).
| Time | Temp. | Humidity | Pressure | Rain* | Wind** | Luminosity | Snow |
|---|---|---|---|---|---|---|---|
| 1777469121 | 6.67° C | 44% | 994 hPa | 0 mm | - | - | - |
| 1777467321 | 5.56° C | 44% | 994.1 hPa | 0 mm | - | - | - |
| 1777465521 | 6.67° C | 42% | 994.5 hPa | 0 mm | - | - | - |
| 1777463722 | 5.56° C | 43% | 994.3 hPa | 0 mm | - | - | - |
| 1777461921 | 6.11° C | 41% | 994.6 hPa | 0 mm | - | - | - |
| 1777460122 | 6.67° C | 38% | 994.6 hPa | 0 mm | - | - | - |
| 1777458321 | 7.22° C | 33% | 994.6 hPa | 0 mm | - | - | - |
| 1777456522 | 6.67° C | 39% | 994.7 hPa | 0 mm | - | - | - |
| 1777454722 | 6.11° C | 40% | 994.7 hPa | 0 mm | - | - | - |
| 1777452921 | 6.67° C | 40% | 994.8 hPa | 0 mm | - | - | - |
| 1777451122 | 6.67° C | 43% | 995.2 hPa | 0 mm | - | - | - |
| 1777449322 | 5° C | 45% | 994.9 hPa | 0 mm | - | - | - |
| 1777447520 | 4.44° C | 48% | 995.2 hPa | 0 mm | - | - | - |
| 1777445722 | 3.89° C | 55% | 995.2 hPa | 0 mm | - | - | - |
| 1777443921 | 3.33° C | 62% | 995.4 hPa | 0 mm | - | - | - |
| 1777442121 | 2.22° C | 60% | 995.3 hPa | 0 mm | - | - | - |
| 1777440321 | 1.67° C | 61% | 995.7 hPa | 0 mm | - | - | - |
| 1777438521 | 0.56° C | 62% | 995.8 hPa | 0 mm | - | - | - |
| 1777436721 | 0° C | 64% | 995.7 hPa | 0 mm | - | - | - |
| 1777434922 | -1.11° C | 65% | 995.9 hPa | 0 mm | - | - | - |
| 1777433122 | -1.67° C | 64% | 996.3 hPa | 0 mm | - | - | - |
| 1777431322 | -0.56° C | 61% | 996.6 hPa | 0 mm | - | - | - |
| 1777429522 | 0° C | 59% | 996.9 hPa | 0 mm | - | - | - |
| 1777427722 | 0.56° C | 55% | 997.1 hPa | 0 mm | - | - | - |
| 1777425921 | 1.11° C | 52% | 997.2 hPa | 0 mm | - | - | - |
* Rain latest hour (hover to see other rain measurements)
** Current wind speed in m/s (hover to see current wind gust speed)